Aviation Digital Data Service (ADDS)

Output produced by METARs form (1409 UTC 10 July 2020)
found at http://www.aviationweather.gov/metar/data/
 
K1R7 101355Z AUTO VRB06G11KT 10SM FEW029 SCT039 SCT055 27/25 A3006 RMK AO2 PWINO
K1R7 101335Z AUTO 26006KT 10SM FEW055 27/25 A3006 RMK AO2 PWINO
K1R7 101315Z AUTO 26005KT 9SM FEW055 26/25 A3006 RMK AO2 PWINO
K1R7 101255Z AUTO 26006KT 9SM CLR 26/25 A3005 RMK AO2 PWINO
K1R7 101235Z AUTO 26006KT 9SM CLR 26/25 A3005 RMK AO2 PWINO
K1R7 101215Z AUTO 25005KT 8SM FEW047 26/25 A3005 RMK AO2 PWINO
K1R7 101155Z AUTO 23005KT 8SM CLR 25/24 A3004 RMK AO2 LTG DSNT E PWINO
K1R7 101135Z AUTO 24005KT 8SM CLR 25/24 A3004 RMK AO2 PWINO
K1R7 101115Z AUTO 24006KT 9SM 25/24 A3003 RMK AO2 PWINO
K1R7 101055Z AUTO 25005G11KT 10SM 26/25 A3004 RMK AO2 PWINO
K1R7 101035Z AUTO 23005KT 9SM BKN042 BKN055 26/25 A3003 RMK AO2 PWINO
K1R7 101015Z AUTO 22006KT 9SM FEW043 FEW050 FEW055 25/24 A3002 RMK AO2 PWINO
K1R7 100955Z AUTO 21006KT 9SM SCT044 BKN050 BKN055 25/24 A3002 RMK AO2 PWINO
K1R7 100935Z AUTO 23005KT 9SM BKN045 26/24 A3001 RMK AO2 PWINO
K1R7 100915Z AUTO 23005KT 10SM SCT045 26/25 A3001 RMK AO2 PWINO
K1R7 100855Z AUTO 24007KT 9SM SCT045 SCT050 26/25 A3001 RMK AO2 PWINO
K1R7 100835Z AUTO 23005KT 10SM FEW044 FEW050 26/25 A3001 RMK AO2 PWINO
K1R7 100815Z AUTO 00000KT 10SM CLR 26/24 A3000 RMK AO2 PWINO
K1R7 100755Z AUTO 23005KT 10SM CLR 26/24 A3000 RMK AO2 PWINO
K1R7 100735Z AUTO 22004KT 10SM CLR 26/24 A3000 RMK AO2 PWINO
K1R7 100715Z AUTO 22004KT 10SM CLR 26/24 A2999 RMK AO2 PWINO
K1R7 100655Z AUTO 23004KT 10SM CLR 26/25 A2999 RMK AO2 PWINO
K1R7 100635Z AUTO 24005KT 10SM CLR 26/25 A2999 RMK AO2 PWINO
K1R7 100615Z AUTO 23006KT 10SM CLR 27/25 A2999 RMK AO2 PWINO
K1R7 100555Z AUTO 23004KT 10SM CLR 27/25 A2998 RMK AO2 PWINO
K1R7 100535Z AUTO 20004KT 10SM CLR 26/25 A2998 RMK AO2 PWINO
K1R7 100515Z AUTO 19004KT 10SM CLR 26/25 A2997 RMK AO2 PWINO
K1R7 100455Z AUTO 00000KT 9SM CLR 26/25 A2997 RMK AO2 PWINO
K1R7 100435Z AUTO 00000KT 9SM CLR 25/24 A2997 RMK AO2 PWINO
K1R7 100415Z AUTO 00000KT 7SM CLR 25/24 A2997 RMK AO2 PWINO
K1R7 100355Z AUTO 00000KT 9SM CLR 26/24 A2996 RMK AO2 PWINO
K1R7 100335Z AUTO 00000KT 9SM CLR 26/24 A2995 RMK AO2 PWINO
K1R7 100315Z AUTO 00000KT 10SM CLR 26/25 A2995 RMK AO2 PWINO
K1R7 100255Z AUTO 00000KT 10SM CLR 26/25 A2995 RMK AO2 PWINO
K1R7 100235Z AUTO 00000KT 10SM CLR 26/25 A2995 RMK AO2 PWINO
K1R7 100215Z AUTO 00000KT 10SM CLR 27/25 A2995 RMK AO2 PWINO
K1R7 100155Z AUTO 00000KT 10SM CLR 27/25 A2994 RMK AO2 PWINO
K1R7 100135Z AUTO 00000KT 10SM CLR 27/25 A2995 RMK AO2 PWINO
K1R7 100115Z AUTO 00000KT 10SM CLR 28/24 A2994 RMK AO2 PWINO
K1R7 100055Z AUTO 00000KT 10SM CLR 30/24 A2995 RMK AO2 PWINO
K1R7 100035Z AUTO 00000KT 10SM CLR 31/23 A2995 RMK AO2 PWINO
K1R7 100015Z AUTO 27004KT 10SM CLR 31/23 A2995 RMK AO2 PWINO
K1R7 092355Z AUTO 26003KT 10SM CLR 32/23 A2995 RMK AO2 PWINO
K1R7 092335Z AUTO 23005KT 10SM FEW040 32/23 A2995 RMK AO2 PWINO
K1R7 092315Z AUTO VRB04KT 9SM FEW040 32/24 A2996 RMK AO2 PWINO
K1R7 092255Z AUTO 28006KT 10SM SCT042 SCT049 32/23 A2996 RMK AO2 PWINO
K1R7 092235Z AUTO 26006KT 10SM FEW046 32/23 A2996 RMK AO2 PWINO
K1R7 092215Z AUTO 27006KT 10SM CLR 33/23 A2996 RMK AO2 PWINO
K1R7 092155Z AUTO 26006KT 10SM CLR 33/23 A2997 RMK AO2 PWINO
K1R7 092135Z AUTO 25009KT 10SM FEW045 33/23 A2997 RMK AO2 PWINO
K1R7 092115Z AUTO 27006KT 10SM FEW045 33/23 A2997 RMK AO2 PWINO
K1R7 092055Z AUTO 25007KT 10SM FEW042 FEW047 FEW060 33/23 A2997 RMK AO2 PWINO
K1R7 092035Z AUTO 24008KT 10SM FEW041 FEW047 SCT055 32/23 A2997 RMK AO2 PWINO
K1R7 092015Z AUTO VRB06KT 10SM FEW043 FEW055 32/24 A2997 RMK AO2 PWINO
K1R7 091955Z AUTO VRB05KT 10SM FEW041 32/23 A2997 RMK AO2 PWINO
K1R7 091935Z AUTO 00000KT 10SM FEW040 FEW047 32/23 A2997 RMK AO2 PWINO
K1R7 091915Z AUTO 25006KT 10SM FEW040 FEW046 32/23 A2998 RMK AO2 PWINO
K1R7 091855Z AUTO VRB04KT 10SM SCT039 SCT046 32/23 A2999 RMK AO2 PWINO
K1R7 091835Z AUTO 25006KT 9SM BKN037 32/24 A2999 RMK AO2 PWINO
K1R7 091815Z AUTO 00000KT 9SM FEW035 31/23 A2999 RMK AO2 PWINO
K1R7 091755Z AUTO VRB05KT 10SM SCT030 SCT035 31/23 A3000 RMK AO2 PWINO
K1R7 091735Z AUTO 00000KT 9SM SCT030 SCT035 31/24 A3000 RMK AO2 PWINO
K1R7 091715Z AUTO 25005KT 9SM BKN030 31/24 A3000 RMK AO2 PWINO
K1R7 091655Z AUTO VRB05G10KT 9SM BKN026 30/24 A3001 RMK AO2 PWINO
K1R7 091635Z AUTO VRB03G10KT 9SM SCT026 30/24 A3001 RMK AO2 PWINO
K1R7 091615Z AUTO 23005KT 9SM BKN026 29/24 A3001 RMK AO2 PWINO
K1R7 091535Z AUTO 27006KT 9SM VCTS BKN021 29/24 A3000 RMK AO2 LTG DSNT NE PWINO
K1R7 091515Z AUTO 25006G12KT 9SM SCT018 BKN024 29/25 A3000 RMK AO2 PWINO
K1R7 091455Z AUTO 24007KT 9SM BKN018 OVC023 28/24 A3000 RMK AO2 PWINO
K1R7 091415Z AUTO 24007KT 8SM BKN015 BKN020 27/25 A3000 RMK AO2 PWINO
K1R7 091355Z AUTO 26007G13KT 8SM BKN013 OVC020 27/25 A3000 RMK AO2 PWINO
K1R7 091335Z AUTO 25006KT 7SM SCT012 BKN019 27/25 A3000 RMK AO2 PWINO
K1R7 091315Z AUTO 25005KT 7SM FEW010 BKN015 BKN020 26/25 A3000 RMK AO2 PWINO
K1R7 091255Z AUTO 24006KT 8SM BKN010 BKN014 OVC020 26/25 A3000 RMK AO2 PWINO
K1R7 091235Z AUTO 24005KT 6SM BR 26/25 A3000 RMK AO2 PWINO
K1R7 091215Z AUTO 24007KT 6SM BR 25/25 A2999 RMK AO2 LTG DSNT N PWINO
K1R7 091155Z AUTO 26008KT 6SM BR BKN008 OVC017 25/25 A2998 RMK AO2 PWINO
K1R7 091135Z AUTO 24006KT 6SM BR BKN006 BKN009 OVC019 25/25 A2998 RMK AO2 PWINO
K1R7 091115Z AUTO 24007KT 6SM BR 25/25 A2998 RMK AO2 PWINO
K1R7 091055Z AUTO 23008KT 6SM BR OVC006 25/25 A2997 RMK AO2 PWINO
K1R7 091035Z AUTO 24007KT 7SM OVC006 25/25 A2997 RMK AO2 PWINO
K1R7 091015Z AUTO 23007KT 7SM OVC006 25/25 A2996 RMK AO2 PWINO
K1R7 090955Z AUTO 23007KT 6SM BR OVC006 25/25 A2996 RMK AO2 PWINO
K1R7 090935Z AUTO 23007KT 6SM BR OVC006 25/25 A2996 RMK AO2 PWINO
K1R7 090915Z AUTO 22005KT 6SM BR BKN006 25/24 A2995 RMK AO2 PWINO
K1R7 090855Z AUTO 21005KT 7SM FEW005 24/24 A2995 RMK AO2 PWINO
K1R7 090835Z AUTO 21005KT 7SM FEW004 24/24 A2995 RMK AO2 PWINO
K1R7 090815Z AUTO 00000KT 6SM BR SCT003 24/24 A2995 RMK AO2 PWINO
K1R7 090755Z AUTO 20004KT 7SM FEW003 24/24 A2995 RMK AO2 PWINO
K1R7 090735Z AUTO 19004KT 8SM CLR 24/24 A2995 RMK AO2 PWINO
K1R7 090715Z AUTO 19004KT 10SM CLR 24/23 A2996 RMK AO2 PWINO
K1R7 090655Z AUTO 19004KT 10SM CLR 24/23 A2996 RMK AO2 PWINO
K1R7 090635Z AUTO 19005KT 10SM SCT021 SCT029 BKN046 24/23 A2996 RMK AO2 PWINO
K1R7 090615Z AUTO 17004KT 10SM BKN021 OVC026 24/23 A2997 RMK AO2 PWINO
K1R7 090555Z AUTO 16003KT 10SM OVC023 24/23 A2998 RMK AO2 PWINO
K1R7 090535Z AUTO 00000KT 10SM BKN024 BKN029 OVC035 24/23 A2998 RMK AO2 PWINO
K1R7 090515Z AUTO 15003KT 10SM BKN029 OVC036 24/23 A2998 RMK AO2 PWINO
K1R7 090455Z AUTO 15004KT 10SM SCT028 OVC038 24/24 A2998 RMK AO2 PWINO
K1R7 090435Z AUTO 17004KT 10SM SCT004 OVC036 24/24 A2998 RMK AO2 PWINO
K1R7 090415Z AUTO 15004KT 10SM OVC004 24/24 A2998 RMK AO2 PWINO
K1R7 090355Z AUTO 17004KT 10SM OVC004 24/24 A2997 RMK AO2 PWINO
K1R7 090335Z AUTO 14003KT 10SM OVC004 24/24 A2997 RMK AO2 PWINO
K1R7 090315Z AUTO 14003KT 9SM BKN004 OVC048 24/24 A2996 RMK AO2 PWINO
K1R7 090255Z AUTO 15004KT 10SM SCT004 SCT035 OVC047 24/24 A2997 RMK AO2 PWINO
K1R7 090235Z AUTO 00000KT 10SM FEW004 FEW025 BKN043 24/24 A2996 RMK AO2 PWINO
K1R7 090215Z AUTO 00000KT 10SM FEW034 BKN040 BKN046 24/23 A2996 RMK AO2 PWINO
K1R7 090155Z AUTO 00000KT 10SM BKN033 BKN040 OVC046 24/23 A2995 RMK AO2 PWINO
K1R7 090135Z AUTO 00000KT 10SM BKN033 OVC040 25/23 A2995 RMK AO2 PWINO
K1R7 090115Z AUTO 00000KT 10SM FEW032 SCT040 25/23 A2995 RMK AO2 PWINO
K1R7 090055Z AUTO 00000KT 10SM CLR 25/24 A2995 RMK AO2 PWINO
K1R7 090035Z AUTO 00000KT 10SM CLR 26/24 A2995 RMK AO2 PWINO
K1R7 090015Z AUTO 00000KT 10SM CLR 26/24 A2994 RMK AO2 LTG DSNT W PWINO
K1R7 082355Z AUTO 00000KT 10SM SCT009 26/24 A2995 RMK AO2 LTG DSNT W PWINO
K1R7 082335Z AUTO 00000KT 10SM OVC009 26/24 A2995 RMK AO2 PWINO
K1R7 082315Z AUTO 00000KT 10SM OVC008 25/24 A2996 RMK AO2 PWINO
K1R7 082255Z AUTO 00000KT 10SM BKN007 25/24 A2996 RMK AO2 LTG DSNT E AND W PWINO
K1R7 082235Z AUTO 11005KT 10SM BKN006 BKN010 26/24 A2997 RMK AO2 PWINO
K1R7 082215Z AUTO VRB04KT 10SM SCT009 BKN013 27/24 A2999 RMK AO2 PWINO
K1R7 082155Z AUTO 00000KT 10SM SCT014 SCT070 27/24 A2999 RMK AO2 PWINO
K1R7 082135Z AUTO 00000KT 10SM CLR 27/24 A2999 RMK AO2 PWINO
K1R7 082115Z AUTO 00000KT 10SM FEW009 26/24 A2998 RMK AO2 LTG DSNT E AND SE PWINO
K1R7 082055Z AUTO 00000KT 10SM VCTS FEW008 FEW011 26/24 A2997 RMK AO2 LTG DSNT E AND SE AND W PWINO
K1R7 082035Z AUTO 33005KT 8SM VCTS SCT010 BKN032 BKN039 26/24 A2999 RMK AO2 LTG DSNT E AND SE AND W PWINO
K1R7 081955Z AUTO 01005KT 10SM VCTS FEW070 27/26 A2998 RMK AO2 LTG DSNT ALQDS PWINO
K1R7 081935Z AUTO 01005KT 9SM VCTS FEW070 27/25 A3000 RMK AO2 LTG DSNT ALQDS PWINO
K1R7 081855Z AUTO 32003KT 6SM VCTS BR FEW015 FEW022 FEW033 26/24 A2999 RMK AO2 LTG DSNT ALQDS PWINO
K1R7 081835Z AUTO 34007G13KT 310V020 1 1/4SM TS 26/24 A3000 RMK AO2 LTG DSNT ALQDS PWINO
K1R7 081815Z AUTO VRB04G16KT 1/4SM VCTS HZ BKN003 BKN026 OVC046 27/23 A3000 RMK AO2 LTG DSNT ALQDS PWINO
K1R7 081755Z AUTO 27007KT 9SM VCTS FEW023 30/25 A3000 RMK AO2 LTG DSNT ALQDS PWINO
K1R7 081735Z AUTO 25008G14KT 9SM VCTS SCT022 30/25 A3000 RMK AO2 LTG DSNT ALQDS PWINO
K1R7 081715Z AUTO 24008KT 210V270 9SM VCTS CLR 29/26 A3000 RMK AO2 LTG DSNT ALQDS PWINO
K1R7 081655Z AUTO 24005KT 9SM FEW023 FEW039 FEW047 28/25 A3001 RMK AO2 LTG DSNT ALQDS PWINO
K1R7 081635Z AUTO 25007G13KT 2 1/2SM VCTS HZ SCT020 SCT024 BKN047 27/24 A3002 RMK AO2 LTG DSNT ALQDS VIS 1 3/4V4 PWINO
K1R7 081615Z AUTO 24008KT 9SM SCT022 SCT036 SCT043 29/25 A3002 RMK AO2 LTG DSNT NW-NE PWINO
K1R7 081555Z AUTO 25010KT 9SM BKN018 29/26 A3002 RMK AO2 LTG DSNT ALQDS PWINO
K1R7 081535Z AUTO 24006G11KT 8SM SCT015 BKN020 28/26 A3003 RMK AO2 LTG DSNT E AND SW AND NW PWINO
K1R7 081515Z AUTO 25008KT 7SM FEW014 SCT020 27/27 A3003 RMK AO2 LTG DSNT ALQDS PWINO
K1R7 081455Z AUTO VRB04KT 7SM 27/27 A3004 RMK AO2 PWINO
K1R7 081435Z AUTO VRB05KT 5SM BR 26/26 A3004 RMK AO2 LTG DSNT SW AND NW PWINO
K1R7 081415Z AUTO VRB05KT 4SM BR 26/26 A3003 RMK AO2 LTG DSNT SW PWINO
K1R7 081355Z AUTO 20005KT 3SM BR 26/25 A3003 RMK AO2 LTG DSNT ALQDS PWINO
K1R7 081335Z AUTO 19004KT 2 1/2SM BR 25/25 A3003 RMK AO2 LTG DSNT ALQDS PWINO
K1R7 081315Z AUTO VRB04KT 1/2SM BR OVC003 25/25 A3002 RMK AO2 LTG DSNT NW PWINO
K1R7 081255Z AUTO 16004KT 1/2SM BR 25/25 A3002 RMK AO2 LTG DSNT NW PWINO
K1R7 081235Z AUTO 18004KT 1 1/4SM BR OVC003 25/25 A3002 RMK AO2 LTG DSNT W AND NW PWINO
K1R7 081215Z AUTO 19003KT 1/4SM FG OVC003 24/24 A3002 RMK AO2 PWINO
K1R7 081155Z AUTO 00000KT 1/4SM FG OVC003 24/24 A3002 RMK AO2 PWINO
K1R7 081135Z AUTO 19004KT M1/4SM FG OVC003 24/24 A3002 RMK AO2 PWINO
K1R7 081115Z AUTO 18003KT 1/4SM FG OVC003 24/24 A3002 RMK AO2 PWINO
K1R7 081055Z AUTO 19004KT 1/2SM BR OVC003 24/24 A3002 RMK AO2 PWINO
K1R7 081035Z AUTO 19005KT 3SM BR OVC003 24/24 A3001 RMK AO2 PWINO
K1R7 081015Z AUTO 19005KT 4SM BR OVC004 24/24 A3001 RMK AO2 PWINO
K1R7 080955Z AUTO 19004KT 4SM BR OVC003 24/24 A3001 RMK AO2 PWINO
K1R7 080935Z AUTO 19003KT 4SM BR OVC004 24/24 A3001 RMK AO2 PWINO
K1R7 080915Z AUTO 00000KT 5SM BR OVC004 24/23 A3001 RMK AO2 PWINO
K1R7 080855Z AUTO 00000KT 10SM OVC004 23/23 A3001 RMK AO2 PWINO
K1R7 080835Z AUTO 00000KT 10SM SCT006 BKN013 23/23 A3001 RMK AO2 PWINO
K1R7 080815Z AUTO 00000KT 10SM SCT012 SCT025 23/23 A3001 RMK AO2 PWINO
K1R7 080755Z AUTO 00000KT 10SM SCT011 BKN018 BKN025 23/23 A3001 RMK AO2 PWINO
K1R7 080735Z AUTO 00000KT 10SM BKN017 BKN021 BKN025 23/23 A3001 RMK AO2 PWINO
K1R7 080715Z AUTO 00000KT 10SM BKN017 23/23 A3001 RMK AO2 PWINO
K1R7 080655Z AUTO 00000KT 10SM BKN019 23/23 A3001 RMK AO2 PWINO
K1R7 080635Z AUTO 00000KT 10SM 23/23 A3002 RMK AO2 PWINO
K1R7 080615Z AUTO 00000KT 3SM BR SCT013 OVC021 23/23 A3003 RMK AO2 PWINO
K1R7 080555Z AUTO 00000KT 10SM OVC014 23/23 A3003 RMK AO2 PWINO
K1R7 080535Z AUTO 19004KT 10SM SCT015 BKN029 OVC060 24/23 A3003 RMK AO2 PWINO
K1R7 080515Z AUTO 00000KT 10SM FEW029 FEW034 SCT060 24/23 A3003 RMK AO2 PWINO
K1R7 080455Z AUTO 00000KT 10SM BKN033 BKN060 24/23 A3003 RMK AO2 PWINO
K1R7 080435Z AUTO 00000KT 10SM BKN033 24/24 A3002 RMK AO2 PWINO
K1R7 080415Z AUTO 00000KT 10SM CLR 24/24 A3002 RMK AO2 PWINO
K1R7 080355Z AUTO 00000KT 10SM CLR 25/24 A3002 RMK AO2 PWINO
K1R7 080335Z AUTO 00000KT 7SM CLR 25/24 A3002 RMK AO2 PWINO
K1R7 080315Z AUTO 00000KT 5SM BR CLR 25/24 A3001 RMK AO2 PWINO
K1R7 080255Z AUTO 00000KT 7SM CLR 25/24 A3001 RMK AO2 PWINO
K1R7 080235Z AUTO 00000KT 5SM BR CLR 25/24 A3001 RMK AO2 PWINO
K1R7 080215Z AUTO 00000KT 9SM FEW065 25/24 A3001 RMK AO2 PWINO
K1R7 080155Z AUTO 00000KT 8SM FEW044 FEW055 25/24 A3000 RMK AO2 PWINO
K1R7 080135Z AUTO 00000KT 10SM FEW037 SCT043 SCT049 25/24 A3000 RMK AO2 PWINO
K1R7 080115Z AUTO 00000KT 9SM FEW013 FEW023 SCT050 25/24 A3000 RMK AO2 PWINO
K1R7 080035Z AUTO 17008KT 3/4SM HZ BKN003 OVC031 26/24 A3000 RMK AO2 PWINO
K1R7 080015Z AUTO 00000KT 10SM SCT044 SCT075 BKN090 27/24 A3000 RMK AO2 PWINO
K1R7 072355Z AUTO 00000KT 10SM FEW046 28/23 A3001 RMK AO2 PWINO
K1R7 072335Z AUTO 25004KT 10SM CLR 28/23 A3000 RMK AO2 PWINO
K1R7 072315Z AUTO 00000KT 10SM CLR 29/23 A2999 RMK AO2 PWINO
K1R7 072255Z AUTO 00000KT 10SM CLR 29/23 A2999 RMK AO2 PWINO
K1R7 072235Z AUTO 20003KT 10SM CLR 29/23 A3000 RMK AO2 PWINO
K1R7 072215Z AUTO 21006KT 10SM CLR 29/23 A3001 RMK AO2 LTG DSNT NE AND W PWINO
K1R7 072155Z AUTO 24007KT 10SM CLR 29/23 A3001 RMK AO2 LTG DSNT E AND W PWINO
K1R7 072135Z AUTO 24005KT 10SM FEW023 FEW031 FEW046 30/24 A3001 RMK AO2 LTG DSNT NE AND W PWINO
K1R7 072115Z AUTO 24008KT 170V270 10SM TS SCT025 BKN048 BKN075 29/24 A3001 RMK AO2 LTG DSNT NE AND E AND W PWINO
K1R7 072055Z AUTO 23008KT 210V270 10SM FEW029 FEW075 SCT090 29/24 A3002 RMK AO2 LTG DSNT NE AND E PWINO
K1R7 072035Z AUTO VRB06KT 10SM FEW029 FEW035 FEW041 30/24 A3003 RMK AO2 LTG DSNT E PWINO
K1R7 072015Z AUTO 23007KT 210V270 10SM FEW055 30/24 A3003 RMK AO2 LTG DSNT E AND NW PWINO
K1R7 071955Z AUTO 26006KT 10SM SCT055 SCT070 30/24 A3002 RMK AO2 LTG DSNT NE AND E PWINO
K1R7 071935Z AUTO VRB04KT 10SM FEW029 SCT039 BKN070 30/24 A3003 RMK AO2 LTG DSNT ALQDS PWINO
K1R7 071915Z AUTO 00000KT 10SM FEW025 SCT031 BKN040 29/23 A3003 RMK AO2 LTG DSNT E AND SE PWINO
K1R7 071855Z AUTO 00000KT 10SM CLR 29/23 A3004 RMK AO2 LTG DSNT E AND SE PWINO
K1R7 071835Z AUTO VRB05KT 10SM CLR 29/23 A3004 RMK AO2 LTG DSNT E-SW PWINO
K1R7 071815Z AUTO 27004KT 10SM CLR 28/24 A3005 RMK AO2 LTG DSNT E-SW PWINO
K1R7 071755Z AUTO 31005KT 10SM FEW019 FEW028 FEW032 28/24 A3006 RMK AO2 PWINO
K1R7 071735Z AUTO VRB05KT 10SM FEW017 SCT027 SCT032 28/24 A3006 RMK AO2 LTG DSNT E-SW PWINO
K1R7 071715Z AUTO 29005KT 9SM FEW015 SCT020 SCT026 28/24 A3006 RMK AO2 PWINO
K1R7 071655Z AUTO VRB06KT 9SM SCT014 SCT019 27/24 A3006 RMK AO2 LTG DSNT SE AND NW PWINO
K1R7 071635Z AUTO 29007KT 8SM SCT014 BKN019 BKN024 27/24 A3005 RMK AO2 PWINO
K1R7 071615Z AUTO 25006KT 8SM BKN013 BKN019 BKN023 27/25 A3005 RMK AO2 LTG DSNT SW PWINO
K1R7 071555Z AUTO 24007KT 8SM BKN013 OVC019 27/24 A3006 RMK AO2 PWINO
K1R7 071535Z AUTO VRB06KT 9SM OVC014 27/25 A3006 RMK AO2 LTG DSNT E AND SE PWINO
K1R7 071515Z AUTO VRB04KT 9SM OVC012 27/25 A3006 RMK AO2 LTG DSNT SE AND SW PWINO
K1R7 071455Z AUTO 24007KT 8SM OVC011 27/25 A3007 RMK AO2 LTG DSNT SW PWINO
K1R7 071435Z AUTO 25007KT 8SM OVC011 26/24 A3006 RMK AO2 PWINO
K1R7 071415Z AUTO VRB06KT 10SM BKN013 OVC021 26/25 A3006 RMK AO2 PWINO